createdAt,value
2019-01-25T05:03:48.706Z,81.109619
2019-01-25T05:07:16.897Z,80.859375
2019-01-25T05:10:44.769Z,81.005859
2019-01-25T05:14:12.630Z,81.109619
2019-01-25T05:17:40.501Z,81.530762
2019-01-25T05:21:08.372Z,81.634521
2019-01-25T05:24:37.233Z,81.848145
2019-01-25T05:28:05.091Z,81.494141
2019-01-25T05:31:33.940Z,81.634521
2019-01-25T05:35:01.808Z,81.109619
2019-01-25T05:38:30.662Z,82.055664
2019-01-25T05:41:58.519Z,81.848145
2019-01-25T05:45:26.375Z,81.848145
2019-01-25T05:48:54.999Z,81.530762
2019-01-25T05:52:23.420Z,81.427002
2019-01-25T05:55:51.288Z,81.280518
2019-01-25T05:59:19.142Z,81.390381
2019-01-25T06:02:48.006Z,81.176758
2019-01-25T06:06:15.914Z,80.755615
2019-01-25T06:09:44.761Z,81.072998
2019-01-25T06:13:14.611Z,80.651855
2019-01-25T06:16:42.491Z,81.072998
2019-01-25T06:20:10.340Z,81.072998
2019-01-25T06:23:38.211Z,80.334473
2019-01-25T06:27:06.091Z,80.541992
2019-01-25T06:30:34.953Z,80.969238
2019-01-25T06:34:02.808Z,81.280518
2019-01-25T06:37:30.680Z,80.438232
2019-01-25T06:40:58.655Z,80.651855
2019-01-25T06:44:26.512Z,80.859375
2019-01-25T06:47:54.382Z,80.859375
2019-01-25T06:51:22.253Z,80.12085
2019-01-25T06:54:50.102Z,80.651855
2019-01-25T06:58:17.977Z,80.651855
2019-01-25T07:01:45.847Z,79.803467
2019-01-25T07:05:13.704Z,80.12085
2019-01-25T07:08:41.574Z,80.969238
2019-01-25T07:12:09.432Z,79.803467
2019-01-25T07:15:38.295Z,80.334473
2019-01-25T07:19:06.162Z,80.297852
2019-01-25T07:22:34.038Z,80.12085
2019-01-25T07:26:01.892Z,79.91333
2019-01-25T07:29:29.772Z,80.541992
2019-01-25T07:32:57.641Z,80.084229
2019-01-25T07:36:27.495Z,80.084229
2019-01-25T07:39:55.377Z,80.194092
2019-01-25T07:43:23.257Z,80.718994
2019-01-25T07:46:51.090Z,80.297852
2019-01-25T07:50:18.963Z,80.401611
2019-01-25T07:53:46.850Z,81.140137
2019-01-25T07:57:14.685Z,81.243896
2019-01-25T08:00:42.562Z,81.243896
2019-01-25T08:04:10.470Z,81.140137
2019-01-25T08:07:39.308Z,81.140137
2019-01-25T08:11:07.141Z,81.774902
2019-01-25T08:14:36.024Z,79.876709
2019-01-25T08:18:03.871Z,80.718994
2019-01-25T08:21:31.722Z,81.628418
2019-01-25T08:25:00.715Z,80.932617
2019-01-25T08:28:28.493Z,80.682373
2019-01-25T08:31:56.325Z,80.157471
2019-01-25T08:35:24.248Z,80.46875
2019-01-25T08:38:52.081Z,81.524658
2019-01-25T08:42:19.958Z,80.682373
2019-01-25T08:45:49.413Z,79.736328
2019-01-25T08:49:16.653Z,80.26123
2019-01-25T08:52:44.509Z,80.157471
2019-01-25T08:56:12.378Z,80.36499
2019-01-25T08:59:40.353Z,81.420898
2019-01-25T09:03:10.081Z,79.522705
2019-01-25T09:06:37.945Z,80.26123
2019-01-25T09:10:05.818Z,81.628418
2019-01-25T09:13:33.679Z,80.46875
2019-01-25T09:17:01.548Z,79.418945
2019-01-25T09:20:29.414Z,79.522705
2019-01-25T09:23:57.264Z,79.486084
2019-01-25T09:27:25.147Z,79.382324
2019-01-25T09:30:53.023Z,78.643799
2019-01-25T09:34:20.894Z,79.278564
2019-01-25T09:37:48.757Z,79.522705
2019-01-25T09:41:16.628Z,78.68042
2019-01-25T09:44:45.487Z,78.436279
2019-01-25T09:48:13.339Z,78.753662
2019-01-25T09:51:41.206Z,78.222656
2019-01-25T09:55:09.078Z,78.503418
2019-01-25T09:58:36.938Z,77.349854
2019-01-25T10:02:04.819Z,78.436279
2019-01-25T10:05:33.680Z,77.490234
2019-01-25T10:09:01.534Z,78.753662
2019-01-25T10:12:29.402Z,77.978516
2019-01-25T10:16:02.225Z,77.801514
2019-01-25T10:19:30.090Z,77.764893
2019-01-25T10:22:58.957Z,77.453613
2019-01-25T10:26:26.825Z,77.23999
2019-01-25T10:29:54.729Z,76.611328
2019-01-25T10:33:24.570Z,76.715088
2019-01-25T10:36:52.439Z,77.23999
2019-01-25T10:40:20.336Z,77.23999
2019-01-25T10:43:48.191Z,76.928711
2019-01-25T10:47:17.066Z,77.032471
2019-01-25T10:50:44.932Z,77.23999
2019-01-25T10:54:12.783Z,77.032471
2019-01-25T10:57:40.664Z,78.503418
2019-01-25T11:01:08.536Z,78.295898
2019-01-25T11:04:36.382Z,77.978516
2019-01-25T11:08:04.254Z,78.186035
2019-01-25T11:11:32.121Z,77.557373
2019-01-25T11:15:01.431Z,78.57666
2019-01-25T11:18:28.849Z,77.453613
2019-01-25T11:21:56.723Z,78.503418
2019-01-25T11:25:24.597Z,79.241943
2019-01-25T11:28:52.454Z,79.138184
2019-01-25T11:32:20.323Z,79.766846
2019-01-25T11:35:48.192Z,80.187988
2019-01-25T11:39:16.054Z,79.766846
2019-01-25T11:42:43.927Z,81.097412
2019-01-25T11:46:11.795Z,79.345703
2019-01-25T11:49:39.652Z,80.712891
2019-01-25T11:53:07.526Z,80.401611
2019-01-25T11:56:35.389Z,79.663086
2019-01-25T12:00:03.250Z,80.505371
2019-01-25T12:03:31.118Z,80.926514
2019-01-25T12:06:58.980Z,81.237793
2019-01-25T12:10:26.833Z,81.622314
2019-01-25T12:13:54.708Z,80.712891
2019-01-25T12:17:22.583Z,81.237793
2019-01-25T12:20:51.426Z,81.622314
2019-01-25T12:24:19.292Z,81.555176
2019-01-25T12:27:48.156Z,82.15332
2019-01-25T12:31:16.013Z,82.189941
2019-01-25T12:34:43.944Z,82.080078
2019-01-25T12:38:11.766Z,82.4646
2019-01-25T12:41:39.627Z,81.835938
2019-01-25T12:45:07.758Z,82.714844
2019-01-25T12:48:35.631Z,82.397461
2019-01-25T12:52:08.158Z,81.976318
2019-01-25T12:55:33.352Z,83.032227
2019-01-25T12:59:01.223Z,82.818604
2019-01-25T13:02:29.090Z,83.032227
2019-01-25T13:05:57.947Z,83.135986
2019-01-25T13:09:25.817Z,82.922363
2019-01-25T13:12:53.703Z,83.453369
2019-01-25T13:16:22.223Z,84.289551
2019-01-25T13:19:50.099Z,83.557129
2019-01-25T13:23:17.963Z,83.764648
2019-01-25T13:26:45.837Z,84.820557
2019-01-25T13:30:13.702Z,83.978271
2019-01-25T13:33:42.565Z,85.028076
2019-01-25T13:37:10.417Z,85.131836
2019-01-25T13:40:38.324Z,85.620117
2019-01-25T13:44:06.245Z,85.028076
2019-01-25T13:47:37.765Z,85.449219
2019-01-25T13:51:05.643Z,85.449219
2019-01-25T13:54:33.519Z,86.187744
2019-01-25T13:58:01.400Z,86.608887
2019-01-25T14:01:34.470Z,86.712646
2019-01-25T14:05:00.182Z,86.291504
2019-01-25T14:08:28.162Z,86.395264
2019-01-25T14:11:56.038Z,87.451172
2019-01-25T14:15:23.935Z,86.291504
2019-01-25T14:18:52.827Z,86.291504
2019-01-25T14:22:20.836Z,87.133789
2019-01-25T14:25:48.719Z,87.762451
2019-01-25T14:29:16.684Z,87.451172
2019-01-25T14:32:44.542Z,87.554932
2019-01-25T14:36:12.484Z,87.347412
2019-01-25T14:39:40.352Z,87.554932
2019-01-25T14:43:08.236Z,87.976074
2019-01-25T14:46:37.130Z,87.554932
2019-01-25T14:50:05.114Z,87.554932
2019-01-25T14:53:33.030Z,87.976074
2019-01-25T14:57:00.890Z,87.872314
2019-01-25T15:00:28.759Z,87.451172
2019-01-25T15:03:56.631Z,87.658691
2019-01-25T15:07:24.474Z,87.030029
2019-01-25T15:10:52.354Z,87.347412
2019-01-25T15:14:20.250Z,86.92627
2019-01-25T15:17:48.120Z,87.658691
2019-01-25T15:21:15.995Z,87.658691
2019-01-25T15:24:43.866Z,87.237549
2019-01-25T15:28:11.744Z,86.816406
2019-01-25T15:31:39.602Z,85.870361
2019-01-25T15:35:07.520Z,86.291504
2019-01-25T15:38:35.445Z,85.662842
2019-01-25T15:42:03.303Z,86.608887
2019-01-25T15:45:32.247Z,84.924316
2019-01-25T15:49:01.148Z,85.552979
2019-01-25T15:52:29.052Z,84.606934
2019-01-25T15:55:56.926Z,85.028076
2019-01-25T15:59:24.865Z,85.028076
2019-01-25T16:02:52.776Z,84.710693
2019-01-25T16:06:20.666Z,84.466553
2019-01-25T16:09:48.590Z,83.660889
2019-01-25T16:13:16.438Z,83.660889
2019-01-25T16:16:44.310Z,83.453369
2019-01-25T16:20:12.197Z,84.606934
2019-01-25T16:23:40.058Z,83.239746
2019-01-25T16:27:07.961Z,83.343506
2019-01-25T16:30:35.828Z,83.557129
2019-01-25T16:34:03.683Z,83.135986
2019-01-25T16:37:31.557Z,82.397461
2019-01-25T16:40:59.434Z,82.397461
2019-01-25T16:44:27.300Z,81.451416
2019-01-25T16:47:56.160Z,81.237793
2019-01-25T16:51:25.026Z,81.237793
2019-01-25T16:54:53.319Z,80.187988
2019-01-25T16:58:21.173Z,80.291748
2019-01-25T17:01:49.084Z,79.449463
2019-01-25T17:05:17.099Z,80.084229
2019-01-25T17:08:45.011Z,78.399658
2019-01-25T17:12:12.943Z,77.557373
2019-01-25T17:15:40.907Z,77.874756
2019-01-25T17:19:08.708Z,76.715088
2019-01-25T17:22:36.582Z,77.13623
2019-01-25T17:26:04.468Z,76.611328
2019-01-25T17:29:33.313Z,75.872803
2019-01-25T17:33:01.180Z,76.190186
2019-01-25T17:36:29.063Z,76.293945
2019-01-25T17:39:56.916Z,75.976562
2019-01-25T17:43:24.781Z,75.665283
2019-01-25T17:46:52.630Z,74.609375
2019-01-25T17:50:20.506Z,75.030518
2019-01-25T17:53:48.383Z,74.291992
2019-01-25T17:57:16.263Z,75.488281
2019-01-25T18:00:44.114Z,74.224854
2019-01-25T18:04:11.989Z,73.382568
2019-01-25T18:07:39.856Z,74.224854
2019-01-25T18:11:08.702Z,74.224854
2019-01-25T18:14:36.571Z,75.805664
2019-01-25T18:18:05.435Z,74.542236
2019-01-25T18:21:34.285Z,72.119141
2019-01-25T18:25:03.149Z,72.436523
2019-01-25T18:28:31.019Z,72.32666
2019-01-25T18:31:58.872Z,72.644043
2019-01-25T18:35:26.756Z,72.857666
2019-01-25T18:38:54.622Z,72.32666
2019-01-25T18:42:22.480Z,72.961426
2019-01-25T18:45:51.342Z,73.803711
2019-01-25T18:49:19.227Z,73.486328
2019-01-25T18:52:47.086Z,72.888184
2019-01-25T18:56:14.965Z,73.730469
2019-01-25T18:59:42.835Z,73.168945
2019-01-25T19:03:10.710Z,73.626709
2019-01-25T19:06:38.570Z,74.255371
2019-01-25T19:10:06.436Z,72.888184
2019-01-25T19:13:34.340Z,73.516846
2019-01-25T19:17:02.216Z,73.730469
2019-01-25T19:20:31.898Z,73.834229
2019-01-25T19:23:59.880Z,74.255371
2019-01-25T19:27:27.818Z,73.834229
2019-01-25T19:30:55.685Z,74.365234
2019-01-25T19:34:23.554Z,74.468994
2019-01-25T19:37:51.421Z,74.572754
2019-01-25T19:41:19.287Z,75.097656
2019-01-25T19:44:47.139Z,74.786377
2019-01-25T19:48:15.026Z,75.20752
2019-01-25T19:51:42.905Z,74.890137
2019-01-25T19:55:10.760Z,74.993896
2019-01-25T19:58:38.637Z,75.20752
2019-01-25T20:02:06.509Z,75.939941
2019-01-25T20:05:34.403Z,75.20752
2019-01-25T20:09:02.245Z,75.836182
2019-01-25T20:12:31.102Z,75.415039
2019-01-25T20:15:58.984Z,75.20752
2019-01-25T20:19:26.837Z,75.518799
2019-01-25T20:22:54.709Z,75.488281
2019-01-25T20:26:22.577Z,75.695801
2019-01-25T20:29:50.429Z,76.470947
2019-01-25T20:33:18.304Z,76.257324
2019-01-25T20:36:46.176Z,76.226807
2019-01-25T20:40:14.031Z,75.805664
2019-01-25T20:43:41.901Z,76.049805
2019-01-25T20:47:09.862Z,76.647949
2019-01-25T20:50:38.712Z,76.538086
2019-01-25T20:54:06.584Z,76.855469
2019-01-25T20:57:34.457Z,77.172852
2019-01-25T21:01:02.394Z,76.959229
2019-01-25T21:04:30.185Z,77.069092
2019-01-25T21:07:58.061Z,76.959229
2019-01-25T21:11:26.906Z,77.593994
2019-01-25T21:14:54.774Z,77.380371
2019-01-25T21:18:22.673Z,77.911377
2019-01-25T21:21:50.523Z,77.801514
2019-01-25T21:25:18.391Z,78.015137
2019-01-25T21:28:46.258Z,78.33252
2019-01-25T21:32:14.115Z,78.540039
2019-01-25T21:35:41.984Z,78.540039
2019-01-25T21:39:09.855Z,78.540039
2019-01-25T21:42:37.706Z,78.015137
2019-01-25T21:46:06.580Z,78.540039
2019-01-25T21:49:34.442Z,78.540039
2019-01-25T21:53:02.299Z,78.857422
2019-01-25T21:56:30.198Z,78.643799
2019-01-25T21:59:58.070Z,79.174805
2019-01-25T22:03:25.958Z,79.382324
2019-01-25T22:06:54.797Z,79.278564
2019-01-25T22:10:22.680Z,79.382324
2019-01-25T22:13:52.858Z,80.12085
2019-01-25T22:17:20.387Z,79.907227
2019-01-25T22:20:48.257Z,80.328369
2019-01-25T22:24:16.127Z,80.438232
2019-01-25T22:27:44.976Z,80.224609
2019-01-25T22:31:12.845Z,80.963135
2019-01-25T22:34:40.710Z,80.749512
2019-01-25T22:38:09.559Z,80.645752
2019-01-25T22:41:37.438Z,80.963135
2019-01-25T22:45:05.305Z,80.859375
2019-01-25T22:48:34.154Z,81.280518
2019-01-25T22:52:03.013Z,81.170654
2019-01-25T22:55:30.886Z,81.80542
2019-01-25T22:58:58.797Z,81.384277
